NCAR-RAP Real-Time Weather Data

Output produced by METARs form (21 May 2019  10:26 UTC)
found at http://weather.rap.ucar.edu/surface/
 
RJTO 210800Z 20013KT 9999 FEW007 SCT015 BKN030 19/18 Q1000
RJTO 210728Z 20018KT 9999 -SHRA FEW005 SCT008 BKN025 19/18 Q0999 RMK 2ST005 3ST008 5CU025 A2952
RJTO 210700Z 21012KT 9999 -SHRA FEW002 SCT004 BKN007 20/19 Q0999
RJTO 210612Z 16010KT 5000 SHRA BR FEW007 SCT009 BKN020 20/19 Q0999 RMK 1ST007 4ST009 6CU020 A2952
RJTO 210600Z 18006KT 3500 SHRA BR FEW005 BKN007 BKN015 20/19 Q1000
RJTO 210527Z 20008KT 2500 SHRA BR FEW003 SCT005 BKN007 20/19 Q1000 RMK 1ST003 3ST005 6ST007 A2955
RJTO 210500Z 18007KT 150V220 2000 +SHRA BR FEW002 SCT004 BKN008 20/19 Q1000
RJTO 210437Z 20010KT 2000 SHRA BR FEW001 BKN003 BKN008 20/19 Q1001 RMK 1ST001 5ST003 7ST008 A2956
RJTO 210406Z 22014KT 2000 +SHRA BR BKN003 BKN006 BKN012 20/19 Q1000 RMK 5ST003 6ST006 7CU012 A2956 P/RR
RJTO 210400Z 23015KT 2000 SHRA BR SCT004 BKN006 BKN012 20/19 Q1000
RJTO 210316Z 18028G41KT 3000 SHRA BR FEW006 BKN009 BKN013 22/21 Q0999 RMK 1ST006 5ST009 6CU013 A2952
RJTO 210300Z 18028G41KT 4000 -SHRA BR FEW006 BKN009 BKN013 22/21 Q1000
RJTO 210241Z 18024G38KT 3500 SHRA BR FEW005 BKN008 BKN012 21/21 Q1000 RMK 1ST005 5ST008 6CU012 A2954
RJTO 210216Z 18028G44KT 2000 +SHRA BR FEW002 BKN008 BKN015 21/21 Q1000 RMK 1ST002 5ST008 7CU015 A2955
RJTO 210200Z 18024G36KT 2000 SHRA BR FEW005 BKN008 BKN015 21/20 Q1001
RJTO 210113Z 18028G41KT 2000 SHRA BR FEW005 BKN009 BKN015 21/20 Q1001 RMK 1ST005 5ST009 7CU015 A2957
RJTO 210100Z 18026G36KT 3000 SHRA BR FEW005 BKN009 BKN015 21/20 Q1001
RJTO 210000Z 18025G37KT 2000 SHRA BR FEW005 BKN008 BKN015 21/20 Q1002
RJTO 202300Z 18025G37KT 3000 SHRA BR FEW006 BKN011 BKN015 21/20 Q1002
RJTO 200800Z 15011KT 120V180 9999 -SHRA FEW020 SCT025 BKN070 20/15 Q1013
RJTO 200700Z 16009KT 120V190 9999 -SHRA FEW025 SCT030 BKN070 22/16 Q1013
RJTO 200600Z 16008KT 110V200 9999 FEW025 SCT030 BKN070 22/16 Q1014
RJTO 200500Z 14009KT 110V180 9999 FEW025 SCT030 BKN070 22/16 Q1015
RJTO 200400Z 13012KT 100V160 9999 FEW025 SCT040 BKN070 22/15 Q1015
RJTO 200300Z 12010KT 090V150 9999 -SHRA FEW020 SCT040 21/16 Q1016
RJTO 200200Z 12006KT 080V170 9999 -SHRA FEW020 SCT025 BKN050 20/16 Q1017
RJTO 200100Z 14010KT 100V180 9999 -SHRA FEW020 SCT025 BKN060 20/14 Q1017
RJTO 200000Z 13012KT 090V150 9999 FEW025 BKN070 21/14 Q1017
RJTO 192300Z 13013KT 080V160 9999 FEW025 BKN/// 21/14 Q1017
RJTO 190800Z 09006KT 040V140 9999 FEW030 20/13 Q1021
RJTO 190700Z 11010KT 080V170 9999 FEW035 21/11 Q1021
RJTO 190600Z 10008KT 070V140 9999 FEW035 SCT040 22/12 Q1021
RJTO 190500Z 11009KT 050V170 9999 FEW035 SCT040 22/13 Q1021
RJTO 190400Z 12013KT 070V160 9999 FEW035 22/12 Q1021
RJTO 190300Z 11011KT 060V150 9999 FEW035 22/13 Q1022
RJTO 190200Z 12011KT 090V160 9999 FEW030 22/13 Q1022
RJTO 190100Z 12012KT 060V150 9999 FEW030 22/14 Q1022
RJTO 190000Z 11010KT 080V140 9999 FEW025 SCT060 BKN/// 21/14 Q1022
RJTO 182300Z 13005KT 080V210 9999 -SHRA FEW015 BKN030 BKN060 19/15 Q1022